sensor_id;sensor_type;location;lat;lon;timestamp;temperature;humidity
18456;DHT22;9357;49.900;8.208;2023-06-26T00:01:32;23.50;99.90
18456;DHT22;9357;49.900;8.208;2023-06-26T00:03:05;23.50;99.90
18456;DHT22;9357;49.900;8.208;2023-06-26T00:04:38;23.50;99.90
18456;DHT22;9357;49.900;8.208;2023-06-26T00:06:11;23.50;99.90
18456;DHT22;9357;49.900;8.208;2023-06-26T00:07:43;23.40;99.90
18456;DHT22;9357;49.900;8.208;2023-06-26T00:09:16;23.40;99.90
18456;DHT22;9357;49.900;8.208;2023-06-26T00:10:49;23.40;99.90
18456;DHT22;9357;49.900;8.208;2023-06-26T00:12:23;23.30;99.90
18456;DHT22;9357;49.900;8.208;2023-06-26T00:13:57;23.30;99.90
18456;DHT22;9357;49.900;8.208;2023-06-26T00:15:31;23.30;99.90
18456;DHT22;9357;49.900;8.208;2023-06-26T00:17:04;23.30;99.90
18456;DHT22;9357;49.900;8.208;2023-06-26T00:18:36;23.20;99.90
18456;DHT22;9357;49.900;8.208;2023-06-26T00:20:09;23.20;99.90
18456;DHT22;9357;49.900;8.208;2023-06-26T00:21:42;23.20;99.90
18456;DHT22;9357;49.900;8.208;2023-06-26T00:23:18;23.10;99.90
18456;DHT22;9357;49.900;8.208;2023-06-26T00:24:50;23.20;99.90
18456;DHT22;9357;49.900;8.208;2023-06-26T00:26:23;23.20;99.90
18456;DHT22;9357;49.900;8.208;2023-06-26T00:27:56;23.20;99.90
18456;DHT22;9357;49.900;8.208;2023-06-26T00:29:30;23.20;99.90
18456;DHT22;9357;49.900;8.208;2023-06-26T00:31:03;23.20;99.90
18456;DHT22;9357;49.900;8.208;2023-06-26T00:32:36;23.20;99.90
18456;DHT22;9357;49.900;8.208;2023-06-26T00:34:10;23.20;99.90
18456;DHT22;9357;49.900;8.208;2023-06-26T00:35:42;23.20;99.90
18456;DHT22;9357;49.900;8.208;2023-06-26T00:37:15;23.10;99.90
18456;DHT22;9357;49.900;8.208;2023-06-26T00:38:49;23.10;99.90
18456;DHT22;9357;49.900;8.208;2023-06-26T00:40:22;23.10;99.90
18456;DHT22;9357;49.900;8.208;2023-06-26T00:41:54;23.10;99.90
18456;DHT22;9357;49.900;8.208;2023-06-26T00:43:27;23.00;99.90
18456;DHT22;9357;49.900;8.208;2023-06-26T00:45:01;23.00;99.90
18456;DHT22;9357;49.900;8.208;2023-06-26T00:46:35;23.00;99.90
18456;DHT22;9357;49.900;8.208;2023-06-26T00:48:09;22.90;99.90
18456;DHT22;9357;49.900;8.208;2023-06-26T00:49:43;22.90;99.90
18456;DHT22;9357;49.900;8.208;2023-06-26T00:51:16;22.80;99.90
18456;DHT22;9357;49.900;8.208;2023-06-26T00:52:49;22.80;99.90
18456;DHT22;9357;49.900;8.208;2023-06-26T00:54:22;22.80;99.90
18456;DHT22;9357;49.900;8.208;2023-06-26T00:55:54;22.70;99.90
18456;DHT22;9357;49.900;8.208;2023-06-26T00:57:27;22.70;99.90
18456;DHT22;9357;49.900;8.208;2023-06-26T00:59:00;22.70;99.90
18456;DHT22;9357;49.900;8.208;2023-06-26T01:00:34;22.60;99.90
18456;DHT22;9357;49.900;8.208;2023-06-26T01:02:07;22.60;99.90
18456;DHT22;9357;49.900;8.208;2023-06-26T01:03:41;22.60;99.90
18456;DHT22;9357;49.900;8.208;2023-06-26T01:05:14;22.60;99.90
18456;DHT22;9357;49.900;8.208;2023-06-26T01:06:52;22.60;99.90
18456;DHT22;9357;49.900;8.208;2023-06-26T01:08:26;22.60;99.90
18456;DHT22;9357;49.900;8.208;2023-06-26T01:09:58;22.60;99.90
18456;DHT22;9357;49.900;8.208;2023-06-26T01:11:31;22.60;99.90
18456;DHT22;9357;49.900;8.208;2023-06-26T01:13:04;22.60;99.90
18456;DHT22;9357;49.900;8.208;2023-06-26T01:14:37;22.50;99.90
18456;DHT22;9357;49.900;8.208;2023-06-26T01:16:12;22.60;99.90
18456;DHT22;9357;49.900;8.208;2023-06-26T01:17:47;22.60;99.90
18456;DHT22;9357;49.900;8.208;2023-06-26T01:19:24;22.60;99.90
18456;DHT22;9357;49.900;8.208;2023-06-26T01:20:58;22.50;99.90
18456;DHT22;9357;49.900;8.208;2023-06-26T01:22:38;22.60;99.90
18456;DHT22;9357;49.900;8.208;2023-06-26T01:24:17;22.60;99.90
18456;DHT22;9357;49.900;8.208;2023-06-26T01:26:09;22.60;99.90
18456;DHT22;9357;49.900;8.208;2023-06-26T01:27:44;22.50;99.90
18456;DHT22;9357;49.900;8.208;2023-06-26T01:29:18;22.50;99.90
18456;DHT22;9357;49.900;8.208;2023-06-26T01:30:52;22.50;99.90
18456;DHT22;9357;49.900;8.208;2023-06-26T01:32:26;22.50;99.90
18456;DHT22;9357;49.900;8.208;2023-06-26T01:34:00;22.50;99.90
18456;DHT22;9357;49.900;8.208;2023-06-26T01:35:33;22.40;99.90
18456;DHT22;9357;49.900;8.208;2023-06-26T01:37:06;22.30;99.90
18456;DHT22;9357;49.900;8.208;2023-06-26T01:38:38;22.20;99.90
18456;DHT22;9357;49.900;8.208;2023-06-26T01:40:10;22.20;99.90
18456;DHT22;9357;49.900;8.208;2023-06-26T01:41:45;22.20;99.90
18456;DHT22;9357;49.900;8.208;2023-06-26T01:43:21;22.10;99.90
18456;DHT22;9357;49.900;8.208;2023-06-26T01:44:56;22.10;99.90
18456;DHT22;9357;49.900;8.208;2023-06-26T01:46:34;22.10;99.90
18456;DHT22;9357;49.900;8.208;2023-06-26T01:48:10;22.00;99.90
18456;DHT22;9357;49.900;8.208;2023-06-26T01:49:47;21.90;99.90
18456;DHT22;9357;49.900;8.208;2023-06-26T01:51:29;21.90;99.90
18456;DHT22;9357;49.900;8.208;2023-06-26T01:53:06;21.90;99.90
18456;DHT22;9357;49.900;8.208;2023-06-26T01:54:49;21.80;99.90
18456;DHT22;9357;49.900;8.208;2023-06-26T01:56:24;21.70;99.90
18456;DHT22;9357;49.900;8.208;2023-06-26T01:57:58;21.70;99.90
18456;DHT22;9357;49.900;8.208;2023-06-26T01:59:32;21.60;99.90
18456;DHT22;9357;49.900;8.208;2023-06-26T02:01:05;21.60;99.90
18456;DHT22;9357;49.900;8.208;2023-06-26T02:02:38;21.60;99.90
18456;DHT22;9357;49.900;8.208;2023-06-26T02:04:12;21.50;99.90
18456;DHT22;9357;49.900;8.208;2023-06-26T02:05:44;21.50;99.90
18456;DHT22;9357;49.900;8.208;2023-06-26T02:07:17;21.40;99.90
18456;DHT22;9357;49.900;8.208;2023-06-26T02:08:50;21.40;99.90
18456;DHT22;9357;49.900;8.208;2023-06-26T02:10:22;21.30;99.90
18456;DHT22;9357;49.900;8.208;2023-06-26T02:11:55;21.30;99.90
18456;DHT22;9357;49.900;8.208;2023-06-26T02:13:29;21.30;99.90
18456;DHT22;9357;49.900;8.208;2023-06-26T02:15:02;21.30;99.90
18456;DHT22;9357;49.900;8.208;2023-06-26T02:16:35;21.30;99.90
18456;DHT22;9357;49.900;8.208;2023-06-26T02:18:08;21.40;99.90
18456;DHT22;9357;49.900;8.208;2023-06-26T02:19:41;21.40;99.90
18456;DHT22;9357;49.900;8.208;2023-06-26T02:21:18;21.40;99.90
18456;DHT22;9357;49.900;8.208;2023-06-26T02:22:51;21.30;99.90
18456;DHT22;9357;49.900;8.208;2023-06-26T02:24:24;21.40;99.90
18456;DHT22;9357;49.900;8.208;2023-06-26T02:25:59;21.40;99.90
18456;DHT22;9357;49.900;8.208;2023-06-26T02:27:32;21.40;99.90
18456;DHT22;9357;49.900;8.208;2023-06-26T02:29:06;21.40;99.90
18456;DHT22;9357;49.900;8.208;2023-06-26T02:30:39;21.30;99.90
18456;DHT22;9357;49.900;8.208;2023-06-26T02:32:12;21.30;99.90
18456;DHT22;9357;49.900;8.208;2023-06-26T02:33:45;21.40;99.90
18456;DHT22;9357;49.900;8.208;2023-06-26T02:35:17;21.30;99.90
18456;DHT22;9357;49.900;8.208;2023-06-26T02:36:50;21.30;99.90
18456;DHT22;9357;49.900;8.208;2023-06-26T02:38:25;21.30;99.90
18456;DHT22;9357;49.900;8.208;2023-06-26T02:39:58;21.20;99.90
18456;DHT22;9357;49.900;8.208;2023-06-26T02:41:31;21.20;99.90
18456;DHT22;9357;49.900;8.208;2023-06-26T02:43:03;21.20;99.90
18456;DHT22;9357;49.900;8.208;2023-06-26T02:44:37;21.20;99.90
18456;DHT22;9357;49.900;8.208;2023-06-26T02:46:09;21.10;99.90
18456;DHT22;9357;49.900;8.208;2023-06-26T02:47:42;21.10;99.90
18456;DHT22;9357;49.900;8.208;2023-06-26T02:49:15;21.10;99.90
18456;DHT22;9357;49.900;8.208;2023-06-26T02:50:50;21.10;99.90
18456;DHT22;9357;49.900;8.208;2023-06-26T02:52:22;21.10;99.90
18456;DHT22;9357;49.900;8.208;2023-06-26T02:53:55;21.00;99.90
18456;DHT22;9357;49.900;8.208;2023-06-26T02:55:28;21.00;99.90
18456;DHT22;9357;49.900;8.208;2023-06-26T02:57:00;20.90;99.90
18456;DHT22;9357;49.900;8.208;2023-06-26T02:58:32;20.80;99.90
18456;DHT22;9357;49.900;8.208;2023-06-26T03:00:08;20.70;99.90
18456;DHT22;9357;49.900;8.208;2023-06-26T03:01:42;20.70;99.90
18456;DHT22;9357;49.900;8.208;2023-06-26T03:03:14;20.60;99.90
18456;DHT22;9357;49.900;8.208;2023-06-26T03:04:47;20.60;99.90
18456;DHT22;9357;49.900;8.208;2023-06-26T03:06:21;20.60;99.90
18456;DHT22;9357;49.900;8.208;2023-06-26T03:07:54;20.60;99.90
18456;DHT22;9357;49.900;8.208;2023-06-26T03:09:27;20.70;99.90
18456;DHT22;9357;49.900;8.208;2023-06-26T03:10:59;20.70;99.90
18456;DHT22;9357;49.900;8.208;2023-06-26T03:12:32;20.70;99.90
18456;DHT22;9357;49.900;8.208;2023-06-26T03:14:05;20.70;99.90
18456;DHT22;9357;49.900;8.208;2023-06-26T03:15:39;20.70;99.90
18456;DHT22;9357;49.900;8.208;2023-06-26T03:17:10;20.70;99.90
18456;DHT22;9357;49.900;8.208;2023-06-26T03:18:43;20.70;99.90
18456;DHT22;9357;49.900;8.208;2023-06-26T03:20:16;20.70;99.90
18456;DHT22;9357;49.900;8.208;2023-06-26T03:21:49;20.70;99.90
18456;DHT22;9357;49.900;8.208;2023-06-26T03:23:21;20.70;99.90
18456;DHT22;9357;49.900;8.208;2023-06-26T03:24:53;20.70;99.90
18456;DHT22;9357;49.900;8.208;2023-06-26T03:26:27;20.60;99.90
18456;DHT22;9357;49.900;8.208;2023-06-26T03:28:00;20.60;99.90
18456;DHT22;9357;49.900;8.208;2023-06-26T03:29:31;20.60;99.90
18456;DHT22;9357;49.900;8.208;2023-06-26T03:31:06;20.60;99.90
18456;DHT22;9357;49.900;8.208;2023-06-26T03:32:38;20.50;99.90
18456;DHT22;9357;49.900;8.208;2023-06-26T03:34:10;20.50;99.90
18456;DHT22;9357;49.900;8.208;2023-06-26T03:35:43;20.40;99.90
18456;DHT22;9357;49.900;8.208;2023-06-26T03:37:16;20.40;99.90
18456;DHT22;9357;49.900;8.208;2023-06-26T03:38:49;20.40;99.90
18456;DHT22;9357;49.900;8.208;2023-06-26T03:40:21;20.50;99.90
18456;DHT22;9357;49.900;8.208;2023-06-26T03:41:55;20.40;99.90
18456;DHT22;9357;49.900;8.208;2023-06-26T03:43:31;20.50;99.90
18456;DHT22;9357;49.900;8.208;2023-06-26T03:45:05;20.50;99.90
18456;DHT22;9357;49.900;8.208;2023-06-26T03:46:38;20.40;99.90
18456;DHT22;9357;49.900;8.208;2023-06-26T03:48:11;20.40;99.90
18456;DHT22;9357;49.900;8.208;2023-06-26T03:49:44;20.40;99.90
18456;DHT22;9357;49.900;8.208;2023-06-26T03:51:16;20.40;99.90
18456;DHT22;9357;49.900;8.208;2023-06-26T03:52:49;20.40;99.90
18456;DHT22;9357;49.900;8.208;2023-06-26T03:54:22;20.40;99.90
18456;DHT22;9357;49.900;8.208;2023-06-26T03:55:54;20.30;99.90
18456;DHT22;9357;49.900;8.208;2023-06-26T03:57:27;20.30;99.90
18456;DHT22;9357;49.900;8.208;2023-06-26T03:59:00;20.20;99.90
18456;DHT22;9357;49.900;8.208;2023-06-26T04:00:32;20.10;99.90
18456;DHT22;9357;49.900;8.208;2023-06-26T04:02:06;20.00;99.90
18456;DHT22;9357;49.900;8.208;2023-06-26T04:03:39;20.00;99.90
18456;DHT22;9357;49.900;8.208;2023-06-26T04:05:12;20.00;99.90
18456;DHT22;9357;49.900;8.208;2023-06-26T04:06:45;19.90;99.90
18456;DHT22;9357;49.900;8.208;2023-06-26T04:08:18;19.90;99.90
18456;DHT22;9357;49.900;8.208;2023-06-26T04:09:52;19.90;99.90
18456;DHT22;9357;49.900;8.208;2023-06-26T04:11:25;19.90;99.90
18456;DHT22;9357;49.900;8.208;2023-06-26T04:12:57;19.90;99.90
18456;DHT22;9357;49.900;8.208;2023-06-26T04:14:29;19.80;99.90
18456;DHT22;9357;49.900;8.208;2023-06-26T04:16:02;19.80;99.90
18456;DHT22;9357;49.900;8.208;2023-06-26T04:17:36;19.80;99.90
18456;DHT22;9357;49.900;8.208;2023-06-26T04:19:09;19.80;99.90
18456;DHT22;9357;49.900;8.208;2023-06-26T04:21:06;19.90;99.90
18456;DHT22;9357;49.900;8.208;2023-06-26T04:22:39;19.90;99.90
18456;DHT22;9357;49.900;8.208;2023-06-26T04:24:12;20.00;99.90
18456;DHT22;9357;49.900;8.208;2023-06-26T04:25:46;20.00;99.90
18456;DHT22;9357;49.900;8.208;2023-06-26T04:27:19;20.10;99.90
18456;DHT22;9357;49.900;8.208;2023-06-26T04:28:51;20.10;99.90
18456;DHT22;9357;49.900;8.208;2023-06-26T04:30:24;20.10;99.90
18456;DHT22;9357;49.900;8.208;2023-06-26T04:31:57;20.20;99.90
18456;DHT22;9357;49.900;8.208;2023-06-26T04:33:32;20.20;99.90
18456;DHT22;9357;49.900;8.208;2023-06-26T04:35:04;20.20;99.90
18456;DHT22;9357;49.900;8.208;2023-06-26T04:36:37;20.20;99.90
18456;DHT22;9357;49.900;8.208;2023-06-26T04:38:11;20.20;99.90
18456;DHT22;9357;49.900;8.208;2023-06-26T04:39:44;20.20;99.90
18456;DHT22;9357;49.900;8.208;2023-06-26T04:41:16;20.20;99.90
18456;DHT22;9357;49.900;8.208;2023-06-26T04:42:49;20.20;99.90
18456;DHT22;9357;49.900;8.208;2023-06-26T04:44:22;20.10;99.90
18456;DHT22;9357;49.900;8.208;2023-06-26T04:45:55;20.10;99.90
18456;DHT22;9357;49.900;8.208;2023-06-26T04:47:27;20.10;99.90
18456;DHT22;9357;49.900;8.208;2023-06-26T04:49:01;20.10;99.90
18456;DHT22;9357;49.900;8.208;2023-06-26T04:50:34;20.10;99.90
18456;DHT22;9357;49.900;8.208;2023-06-26T04:52:08;20.10;99.90
18456;DHT22;9357;49.900;8.208;2023-06-26T04:53:40;20.20;99.90
18456;DHT22;9357;49.900;8.208;2023-06-26T04:55:13;20.20;99.90
18456;DHT22;9357;49.900;8.208;2023-06-26T04:56:45;20.20;99.90
18456;DHT22;9357;49.900;8.208;2023-06-26T04:58:19;20.30;99.90
18456;DHT22;9357;49.900;8.208;2023-06-26T04:59:51;20.30;99.90
18456;DHT22;9357;49.900;8.208;2023-06-26T05:01:24;20.30;99.90
18456;DHT22;9357;49.900;8.208;2023-06-26T05:03:01;20.40;99.90
18456;DHT22;9357;49.900;8.208;2023-06-26T05:04:35;20.40;99.90
18456;DHT22;9357;49.900;8.208;2023-06-26T05:06:07;20.40;99.90
18456;DHT22;9357;49.900;8.208;2023-06-26T05:07:41;20.40;99.90
18456;DHT22;9357;49.900;8.208;2023-06-26T05:09:13;20.50;99.90
18456;DHT22;9357;49.900;8.208;2023-06-26T05:10:46;20.50;99.90
18456;DHT22;9357;49.900;8.208;2023-06-26T05:12:18;20.50;99.90
18456;DHT22;9357;49.900;8.208;2023-06-26T05:13:51;20.60;99.90
18456;DHT22;9357;49.900;8.208;2023-06-26T05:15:24;20.60;99.90
18456;DHT22;9357;49.900;8.208;2023-06-26T05:16:56;20.60;99.90
18456;DHT22;9357;49.900;8.208;2023-06-26T05:18:28;20.60;99.90
18456;DHT22;9357;49.900;8.208;2023-06-26T05:20:03;20.70;99.90
18456;DHT22;9357;49.900;8.208;2023-06-26T05:21:37;20.70;99.90
18456;DHT22;9357;49.900;8.208;2023-06-26T05:23:11;20.70;99.90
18456;DHT22;9357;49.900;8.208;2023-06-26T05:24:46;20.70;99.90
18456;DHT22;9357;49.900;8.208;2023-06-26T05:26:20;20.70;99.90
18456;DHT22;9357;49.900;8.208;2023-06-26T05:27:53;20.80;99.90
18456;DHT22;9357;49.900;8.208;2023-06-26T05:29:26;20.90;99.90
18456;DHT22;9357;49.900;8.208;2023-06-26T05:31:00;20.90;99.90
18456;DHT22;9357;49.900;8.208;2023-06-26T05:32:34;21.00;99.90
18456;DHT22;9357;49.900;8.208;2023-06-26T05:34:07;21.00;99.90
18456;DHT22;9357;49.900;8.208;2023-06-26T05:35:43;21.10;99.90
18456;DHT22;9357;49.900;8.208;2023-06-26T05:37:20;21.10;99.90
18456;DHT22;9357;49.900;8.208;2023-06-26T05:38:54;21.20;99.90
18456;DHT22;9357;49.900;8.208;2023-06-26T05:40:28;21.20;99.90
18456;DHT22;9357;49.900;8.208;2023-06-26T05:42:01;21.30;99.90
18456;DHT22;9357;49.900;8.208;2023-06-26T05:43:34;21.30;99.90
18456;DHT22;9357;49.900;8.208;2023-06-26T05:45:08;21.40;99.90
18456;DHT22;9357;49.900;8.208;2023-06-26T05:46:41;21.40;99.90
18456;DHT22;9357;49.900;8.208;2023-06-26T05:48:14;21.50;99.90
18456;DHT22;9357;49.900;8.208;2023-06-26T05:49:47;21.60;99.90
18456;DHT22;9357;49.900;8.208;2023-06-26T05:51:22;21.60;99.90
18456;DHT22;9357;49.900;8.208;2023-06-26T05:52:55;21.70;99.90
18456;DHT22;9357;49.900;8.208;2023-06-26T05:54:29;21.70;99.90
18456;DHT22;9357;49.900;8.208;2023-06-26T05:56:02;21.80;99.90
18456;DHT22;9357;49.900;8.208;2023-06-26T05:57:35;21.90;99.90
18456;DHT22;9357;49.900;8.208;2023-06-26T05:59:10;21.90;99.90
18456;DHT22;9357;49.900;8.208;2023-06-26T06:00:43;22.00;99.90
18456;DHT22;9357;49.900;8.208;2023-06-26T06:02:16;22.00;99.90
18456;DHT22;9357;49.900;8.208;2023-06-26T06:03:49;22.10;99.90
18456;DHT22;9357;49.900;8.208;2023-06-26T06:05:22;22.20;99.90
18456;DHT22;9357;49.900;8.208;2023-06-26T06:06:56;22.30;99.90
18456;DHT22;9357;49.900;8.208;2023-06-26T06:08:29;22.30;99.90
18456;DHT22;9357;49.900;8.208;2023-06-26T06:10:02;22.40;99.90
18456;DHT22;9357;49.900;8.208;2023-06-26T06:11:36;22.50;99.90
18456;DHT22;9357;49.900;8.208;2023-06-26T06:13:08;22.50;99.90
18456;DHT22;9357;49.900;8.208;2023-06-26T06:14:41;22.60;99.90
18456;DHT22;9357;49.900;8.208;2023-06-26T06:16:14;22.70;99.90
18456;DHT22;9357;49.900;8.208;2023-06-26T06:17:47;22.80;99.90
18456;DHT22;9357;49.900;8.208;2023-06-26T06:19:20;22.90;99.90
18456;DHT22;9357;49.900;8.208;2023-06-26T06:20:52;22.90;99.90
18456;DHT22;9357;49.900;8.208;2023-06-26T06:22:26;23.10;99.90
18456;DHT22;9357;49.900;8.208;2023-06-26T06:23:59;23.20;99.90
18456;DHT22;9357;49.900;8.208;2023-06-26T06:25:32;23.20;99.90
18456;DHT22;9357;49.900;8.208;2023-06-26T06:27:05;23.40;99.90
18456;DHT22;9357;49.900;8.208;2023-06-26T06:28:38;23.50;99.90
18456;DHT22;9357;49.900;8.208;2023-06-26T06:30:12;23.60;99.90
18456;DHT22;9357;49.900;8.208;2023-06-26T06:31:45;23.70;99.90
18456;DHT22;9357;49.900;8.208;2023-06-26T06:33:18;23.80;99.90
18456;DHT22;9357;49.900;8.208;2023-06-26T06:34:50;24.00;99.90
18456;DHT22;9357;49.900;8.208;2023-06-26T06:36:23;24.10;99.90
18456;DHT22;9357;49.900;8.208;2023-06-26T06:37:57;24.30;99.90
18456;DHT22;9357;49.900;8.208;2023-06-26T06:39:30;24.50;99.90
18456;DHT22;9357;49.900;8.208;2023-06-26T06:41:02;24.80;99.90
18456;DHT22;9357;49.900;8.208;2023-06-26T06:42:35;25.00;99.90
18456;DHT22;9357;49.900;8.208;2023-06-26T06:44:08;25.20;99.90
18456;DHT22;9357;49.900;8.208;2023-06-26T06:45:40;25.40;99.90
18456;DHT22;9357;49.900;8.208;2023-06-26T06:47:13;25.70;99.90
18456;DHT22;9357;49.900;8.208;2023-06-26T06:48:46;26.00;99.90
18456;DHT22;9357;49.900;8.208;2023-06-26T06:50:18;26.20;99.90
18456;DHT22;9357;49.900;8.208;2023-06-26T06:51:51;26.40;99.90
18456;DHT22;9357;49.900;8.208;2023-06-26T06:53:25;26.70;99.90
18456;DHT22;9357;49.900;8.208;2023-06-26T06:54:58;27.00;99.90
18456;DHT22;9357;49.900;8.208;2023-06-26T06:56:31;27.30;99.90
18456;DHT22;9357;49.900;8.208;2023-06-26T06:58:03;27.50;99.90
18456;DHT22;9357;49.900;8.208;2023-06-26T06:59:36;27.70;99.90
18456;DHT22;9357;49.900;8.208;2023-06-26T07:01:09;28.00;99.90
18456;DHT22;9357;49.900;8.208;2023-06-26T07:02:43;28.20;99.90
18456;DHT22;9357;49.900;8.208;2023-06-26T07:04:17;28.40;99.90
18456;DHT22;9357;49.900;8.208;2023-06-26T07:05:49;28.70;99.90
18456;DHT22;9357;49.900;8.208;2023-06-26T07:07:22;28.90;99.90
18456;DHT22;9357;49.900;8.208;2023-06-26T07:08:56;29.10;99.90
18456;DHT22;9357;49.900;8.208;2023-06-26T07:10:30;29.30;99.90
18456;DHT22;9357;49.900;8.208;2023-06-26T07:12:04;29.60;99.90
18456;DHT22;9357;49.900;8.208;2023-06-26T07:13:37;29.80;99.90
18456;DHT22;9357;49.900;8.208;2023-06-26T07:15:10;30.00;99.90
18456;DHT22;9357;49.900;8.208;2023-06-26T07:16:42;30.10;99.90
18456;DHT22;9357;49.900;8.208;2023-06-26T07:18:15;30.20;99.90
18456;DHT22;9357;49.900;8.208;2023-06-26T07:19:48;30.40;99.90
18456;DHT22;9357;49.900;8.208;2023-06-26T07:21:21;30.30;99.90
18456;DHT22;9357;49.900;8.208;2023-06-26T07:22:57;30.30;99.90
18456;DHT22;9357;49.900;8.208;2023-06-26T07:24:31;30.30;99.90
18456;DHT22;9357;49.900;8.208;2023-06-26T07:26:04;30.20;99.90
18456;DHT22;9357;49.900;8.208;2023-06-26T07:27:37;30.30;99.90
18456;DHT22;9357;49.900;8.208;2023-06-26T07:29:10;30.40;99.90
18456;DHT22;9357;49.900;8.208;2023-06-26T07:30:43;30.60;99.90
18456;DHT22;9357;49.900;8.208;2023-06-26T07:32:16;30.70;99.90
18456;DHT22;9357;49.900;8.208;2023-06-26T07:33:49;30.90;99.90
18456;DHT22;9357;49.900;8.208;2023-06-26T07:35:21;31.10;99.90
18456;DHT22;9357;49.900;8.208;2023-06-26T07:36:54;31.30;99.90
18456;DHT22;9357;49.900;8.208;2023-06-26T07:38:27;31.40;99.90
18456;DHT22;9357;49.900;8.208;2023-06-26T07:40:01;31.60;99.90
18456;DHT22;9357;49.900;8.208;2023-06-26T07:41:35;31.80;99.90
18456;DHT22;9357;49.900;8.208;2023-06-26T07:43:08;31.90;99.90
18456;DHT22;9357;49.900;8.208;2023-06-26T07:44:41;32.10;99.90
18456;DHT22;9357;49.900;8.208;2023-06-26T07:46:14;32.20;99.90
18456;DHT22;9357;49.900;8.208;2023-06-26T07:47:47;32.20;99.90
18456;DHT22;9357;49.900;8.208;2023-06-26T07:49:20;32.30;99.90
18456;DHT22;9357;49.900;8.208;2023-06-26T07:50:53;32.40;99.90
18456;DHT22;9357;49.900;8.208;2023-06-26T07:52:27;32.40;99.90
18456;DHT22;9357;49.900;8.208;2023-06-26T07:53:59;32.40;99.90
18456;DHT22;9357;49.900;8.208;2023-06-26T07:55:33;32.30;99.90
18456;DHT22;9357;49.900;8.208;2023-06-26T07:57:07;32.20;99.90
18456;DHT22;9357;49.900;8.208;2023-06-26T07:58:40;32.20;99.90
18456;DHT22;9357;49.900;8.208;2023-06-26T08:00:13;32.10;99.90
18456;DHT22;9357;49.900;8.208;2023-06-26T08:01:46;32.00;99.90
18456;DHT22;9357;49.900;8.208;2023-06-26T08:03:19;32.10;99.90
18456;DHT22;9357;49.900;8.208;2023-06-26T08:05:06;32.10;99.90
18456;DHT22;9357;49.900;8.208;2023-06-26T08:06:39;32.20;99.90
18456;DHT22;9357;49.900;8.208;2023-06-26T08:08:12;32.30;99.90
18456;DHT22;9357;49.900;8.208;2023-06-26T08:09:44;32.40;99.90
18456;DHT22;9357;49.900;8.208;2023-06-26T08:11:18;32.50;99.90
18456;DHT22;9357;49.900;8.208;2023-06-26T08:12:51;32.60;99.90
18456;DHT22;9357;49.900;8.208;2023-06-26T08:14:24;32.90;99.90
18456;DHT22;9357;49.900;8.208;2023-06-26T08:15:57;33.00;99.90
18456;DHT22;9357;49.900;8.208;2023-06-26T08:17:29;32.90;99.90
18456;DHT22;9357;49.900;8.208;2023-06-26T08:19:02;32.90;99.90
18456;DHT22;9357;49.900;8.208;2023-06-26T08:20:35;32.80;99.90
18456;DHT22;9357;49.900;8.208;2023-06-26T08:22:09;32.70;99.90
18456;DHT22;9357;49.900;8.208;2023-06-26T08:23:41;32.70;99.90
18456;DHT22;9357;49.900;8.208;2023-06-26T08:25:14;32.70;99.90
18456;DHT22;9357;49.900;8.208;2023-06-26T08:26:48;32.80;99.90
18456;DHT22;9357;49.900;8.208;2023-06-26T08:28:21;32.80;99.80
18456;DHT22;9357;49.900;8.208;2023-06-26T08:29:53;32.80;99.90
18456;DHT22;9357;49.900;8.208;2023-06-26T08:31:26;32.90;99.90
18456;DHT22;9357;49.900;8.208;2023-06-26T08:32:59;33.00;99.90
18456;DHT22;9357;49.900;8.208;2023-06-26T08:34:32;33.20;99.90
18456;DHT22;9357;49.900;8.208;2023-06-26T08:36:05;33.30;99.90
18456;DHT22;9357;49.900;8.208;2023-06-26T08:37:37;33.30;99.90
18456;DHT22;9357;49.900;8.208;2023-06-26T08:39:10;33.40;99.90
18456;DHT22;9357;49.900;8.208;2023-06-26T08:40:43;33.40;99.90
18456;DHT22;9357;49.900;8.208;2023-06-26T08:42:17;33.50;99.90
18456;DHT22;9357;49.900;8.208;2023-06-26T08:43:50;33.60;99.90
18456;DHT22;9357;49.900;8.208;2023-06-26T08:45:24;33.70;99.90
18456;DHT22;9357;49.900;8.208;2023-06-26T08:46:59;33.70;99.90
18456;DHT22;9357;49.900;8.208;2023-06-26T08:48:33;33.80;99.40
18456;DHT22;9357;49.900;8.208;2023-06-26T08:50:10;33.80;98.90
18456;DHT22;9357;49.900;8.208;2023-06-26T08:51:48;33.70;98.90
18456;DHT22;9357;49.900;8.208;2023-06-26T08:53:29;33.80;98.90
18456;DHT22;9357;49.900;8.208;2023-06-26T08:55:03;33.80;99.00
18456;DHT22;9357;49.900;8.208;2023-06-26T08:56:41;33.90;99.80
18456;DHT22;9357;49.900;8.208;2023-06-26T08:58:16;34.00;99.70
18456;DHT22;9357;49.900;8.208;2023-06-26T08:59:49;34.20;99.10
18456;DHT22;9357;49.900;8.208;2023-06-26T09:01:22;34.20;99.00
18456;DHT22;9357;49.900;8.208;2023-06-26T09:02:55;34.30;99.30
18456;DHT22;9357;49.900;8.208;2023-06-26T09:04:28;34.40;99.60
18456;DHT22;9357;49.900;8.208;2023-06-26T09:06:01;34.50;99.00
18456;DHT22;9357;49.900;8.208;2023-06-26T09:07:34;34.60;98.50
18456;DHT22;9357;49.900;8.208;2023-06-26T09:09:07;34.70;98.10
18456;DHT22;9357;49.900;8.208;2023-06-26T09:10:40;34.70;98.20
18456;DHT22;9357;49.900;8.208;2023-06-26T09:12:16;34.70;98.40
18456;DHT22;9357;49.900;8.208;2023-06-26T09:13:51;34.60;97.70
18456;DHT22;9357;49.900;8.208;2023-06-26T09:15:24;34.60;97.80
18456;DHT22;9357;49.900;8.208;2023-06-26T09:16:57;34.50;98.20
18456;DHT22;9357;49.900;8.208;2023-06-26T09:18:32;34.50;97.80
18456;DHT22;9357;49.900;8.208;2023-06-26T09:20:05;34.50;97.60
18456;DHT22;9357;49.900;8.208;2023-06-26T09:21:39;34.30;96.90
18456;DHT22;9357;49.900;8.208;2023-06-26T09:23:13;34.10;97.70
18456;DHT22;9357;49.900;8.208;2023-06-26T09:24:46;34.00;97.50
18456;DHT22;9357;49.900;8.208;2023-06-26T09:26:19;33.90;97.80
18456;DHT22;9357;49.900;8.208;2023-06-26T09:27:54;33.80;98.00
18456;DHT22;9357;49.900;8.208;2023-06-26T09:29:28;33.70;97.80
18456;DHT22;9357;49.900;8.208;2023-06-26T09:31:01;33.70;98.30
18456;DHT22;9357;49.900;8.208;2023-06-26T09:32:39;33.60;98.30
18456;DHT22;9357;49.900;8.208;2023-06-26T09:34:12;33.50;98.20
18456;DHT22;9357;49.900;8.208;2023-06-26T09:35:45;33.30;98.20
18456;DHT22;9357;49.900;8.208;2023-06-26T09:37:18;33.20;98.20
18456;DHT22;9357;49.900;8.208;2023-06-26T09:38:50;33.00;98.00
18456;DHT22;9357;49.900;8.208;2023-06-26T09:40:23;32.70;98.20
18456;DHT22;9357;49.900;8.208;2023-06-26T09:41:56;32.60;98.40
18456;DHT22;9357;49.900;8.208;2023-06-26T09:43:30;32.40;98.70
18456;DHT22;9357;49.900;8.208;2023-06-26T09:45:05;32.40;98.90
18456;DHT22;9357;49.900;8.208;2023-06-26T09:46:38;32.30;98.80
18456;DHT22;9357;49.900;8.208;2023-06-26T09:48:14;32.30;99.10
18456;DHT22;9357;49.900;8.208;2023-06-26T09:49:48;32.20;99.10
18456;DHT22;9357;49.900;8.208;2023-06-26T09:51:22;32.20;98.90
18456;DHT22;9357;49.900;8.208;2023-06-26T09:52:55;32.10;98.70
18456;DHT22;9357;49.900;8.208;2023-06-26T09:54:28;32.00;99.00
18456;DHT22;9357;49.900;8.208;2023-06-26T09:56:05;32.00;98.90
18456;DHT22;9357;49.900;8.208;2023-06-26T09:57:38;31.90;99.10
18456;DHT22;9357;49.900;8.208;2023-06-26T09:59:11;31.80;99.10
18456;DHT22;9357;49.900;8.208;2023-06-26T10:00:46;31.80;99.20